createdAt,value
2023-01-11T00:00:47.329Z,10.61
2023-01-11T00:03:14.793Z,10.48
2023-01-11T00:05:42.924Z,10.47
2023-01-11T00:08:10.370Z,10.31
2023-01-11T00:10:36.878Z,10.31
2023-01-11T00:13:03.786Z,10.45
2023-01-11T00:15:31.333Z,10.31
2023-01-11T00:17:57.859Z,10.35
2023-01-11T00:20:24.908Z,10.50
2023-01-11T00:22:51.427Z,10.57
2023-01-11T00:25:18.369Z,10.55
2023-01-11T00:27:44.877Z,10.56
2023-01-11T00:30:12.270Z,10.50
2023-01-11T00:32:38.799Z,10.44
2023-01-11T00:35:05.815Z,10.44
2023-01-11T00:37:32.559Z,10.38
2023-01-11T00:39:59.021Z,10.24
2023-01-11T00:42:28.555Z,10.39
2023-01-11T00:44:55.082Z,10.49
2023-01-11T00:47:21.586Z,10.31
2023-01-11T00:49:48.099Z,10.26
2023-01-11T00:52:14.848Z,10.09
2023-01-11T00:54:42.160Z,10.31
2023-01-11T00:57:09.201Z,10.34
2023-01-11T00:59:38.999Z,10.38
2023-01-11T01:02:05.615Z,10.33
2023-01-11T01:04:32.570Z,10.23
2023-01-11T01:06:59.055Z,10.31
2023-01-11T01:09:26.065Z,10.20
2023-01-11T01:11:52.744Z,10.37
2023-01-11T01:14:19.213Z,10.39
2023-01-11T01:16:47.254Z,10.47
2023-01-11T01:19:14.134Z,10.44
2023-01-11T01:21:40.768Z,10.36
2023-01-11T01:24:07.485Z,10.47
2023-01-11T01:26:33.953Z,10.52
2023-01-11T01:29:01.077Z,10.72
2023-01-11T01:31:27.695Z,10.52
2023-01-11T01:33:54.325Z,10.71
2023-01-11T01:36:20.728Z,10.52
2023-01-11T01:38:47.226Z,10.78
2023-01-11T01:41:14.148Z,10.79
2023-01-11T01:43:51.723Z,10.85
2023-01-11T01:46:20.676Z,10.79
2023-01-11T01:48:52.847Z,10.81
2023-01-11T01:51:28.009Z,10.77
2023-01-11T01:53:58.616Z,10.85
2023-01-11T01:56:35.793Z,10.81
2023-01-11T01:59:10.829Z,10.71
2023-01-11T02:01:37.383Z,10.74
2023-01-11T02:04:10.418Z,10.61
2023-01-11T02:06:37.446Z,10.96
2023-01-11T02:09:16.089Z,10.62
2023-01-11T02:11:43.558Z,10.79
2023-01-11T02:14:14.319Z,10.90
2023-01-11T02:16:40.875Z,10.53
2023-01-11T02:19:11.916Z,10.74
2023-01-11T02:22:08.807Z,10.70
2023-01-11T02:25:09.187Z,10.75
2023-01-11T02:28:02.885Z,10.28
2023-01-11T02:30:51.112Z,10.74
2023-01-11T02:33:29.093Z,10.77
2023-01-11T02:36:12.833Z,10.73
2023-01-11T02:38:43.787Z,10.80
2023-01-11T02:41:35.072Z,10.80
2023-01-11T02:44:12.771Z,10.68
2023-01-11T02:46:50.983Z,10.75
2023-01-11T02:49:35.496Z,10.76
2023-01-11T02:52:27.064Z,10.74
2023-01-11T02:54:58.244Z,10.43
2023-01-11T02:57:27.050Z,10.52
2023-01-11T02:59:54.937Z,10.65
2023-01-11T03:02:21.499Z,10.52
2023-01-11T03:04:47.905Z,10.39
2023-01-11T03:07:21.223Z,10.43
2023-01-11T03:09:47.622Z,10.77
2023-01-11T03:12:32.103Z,10.79
2023-01-11T03:15:17.179Z,10.83
2023-01-11T03:17:49.662Z,10.75
2023-01-11T03:20:30.818Z,10.71
2023-01-11T03:23:12.302Z,10.76
2023-01-11T03:25:54.684Z,10.72
2023-01-11T03:28:36.380Z,10.57
2023-01-11T03:31:30.338Z,10.73
2023-01-11T03:34:11.773Z,10.69
2023-01-11T03:37:22.677Z,10.57
2023-01-11T03:39:57.658Z,10.73
2023-01-11T03:42:27.422Z,10.50
2023-01-11T03:44:57.414Z,10.71
2023-01-11T03:47:28.469Z,10.44
2023-01-11T03:50:01.947Z,10.76
2023-01-11T03:52:35.781Z,10.51
2023-01-11T03:55:05.921Z,10.69
2023-01-11T03:57:36.093Z,10.71
2023-01-11T04:00:04.611Z,10.61
2023-01-11T04:02:38.983Z,10.75
2023-01-11T04:05:07.115Z,10.66
2023-01-11T04:07:33.567Z,10.65
2023-01-11T04:10:00.160Z,10.76
2023-01-11T04:12:26.766Z,10.54
2023-01-11T04:14:53.401Z,10.77
2023-01-11T04:17:20.094Z,10.76
2023-01-11T04:19:46.504Z,10.78
2023-01-11T04:22:13.210Z,10.68
2023-01-11T04:24:39.664Z,10.76
2023-01-11T04:27:06.226Z,10.81
2023-01-11T04:29:32.737Z,10.70
2023-01-11T04:31:59.159Z,10.74
2023-01-11T04:34:25.548Z,10.68
2023-01-11T04:36:52.063Z,10.77
2023-01-11T04:39:18.531Z,10.82
2023-01-11T04:41:44.986Z,10.79
2023-01-11T04:44:11.732Z,10.75
2023-01-11T04:46:38.163Z,10.69
2023-01-11T04:49:04.623Z,10.71
2023-01-11T04:51:31.112Z,10.70
2023-01-11T04:53:57.542Z,10.16
2023-01-11T04:56:24.083Z,10.53
2023-01-11T04:58:50.500Z,10.56
2023-01-11T05:01:18.869Z,10.55
2023-01-11T05:03:45.868Z,10.43
2023-01-11T05:06:13.109Z,10.35
2023-01-11T05:08:39.674Z,10.25
2023-01-11T05:11:07.810Z,10.34
2023-01-11T05:13:34.641Z,10.30
2023-01-11T05:16:01.049Z,10.26
2023-01-11T05:18:27.501Z,10.22
2023-01-11T05:20:53.940Z,10.02
2023-01-11T05:23:20.382Z,9.95
2023-01-11T05:25:46.820Z,10.13
2023-01-11T05:28:13.276Z,9.44
2023-01-11T05:30:39.683Z,10.03
2023-01-11T05:33:06.121Z,9.87
2023-01-11T05:35:32.704Z,10.00
2023-01-11T05:37:59.087Z,9.81
2023-01-11T05:40:25.512Z,9.93
2023-01-11T05:42:51.935Z,9.58
2023-01-11T05:45:18.363Z,9.79
2023-01-11T05:47:44.810Z,9.51
2023-01-11T05:50:11.293Z,9.88
2023-01-11T05:52:37.710Z,9.56
2023-01-11T05:55:04.572Z,9.80
2023-01-11T05:57:30.964Z,9.76
2023-01-11T05:59:57.420Z,9.01
2023-01-11T06:02:23.993Z,9.72
2023-01-11T06:04:50.550Z,9.35
2023-01-11T06:07:16.980Z,9.70
2023-01-11T06:09:43.411Z,9.59
2023-01-11T06:12:09.850Z,9.54
2023-01-11T06:14:38.166Z,9.55
2023-01-11T06:17:04.784Z,9.37
2023-01-11T06:19:31.262Z,9.61
2023-01-11T06:21:57.700Z,9.40
2023-01-11T06:24:24.149Z,9.47
2023-01-11T06:26:53.728Z,9.32
2023-01-11T06:29:20.289Z,9.40
2023-01-11T06:31:46.753Z,9.36
2023-01-11T06:34:13.227Z,8.97
2023-01-11T06:36:39.641Z,9.28
2023-01-11T06:39:06.078Z,9.31
2023-01-11T06:41:32.724Z,9.36
2023-01-11T06:43:59.286Z,9.14
2023-01-11T06:46:27.575Z,9.24
2023-01-11T06:48:55.493Z,8.95
2023-01-11T06:51:22.016Z,9.14
2023-01-11T06:53:48.525Z,8.80
2023-01-11T06:56:17.030Z,8.90
2023-01-11T06:58:45.579Z,8.98
2023-01-11T07:01:13.668Z,8.97
2023-01-11T07:03:40.226Z,8.91
2023-01-11T07:06:06.835Z,8.79
2023-01-11T07:08:33.354Z,8.97
2023-01-11T07:10:59.935Z,8.92
2023-01-11T07:13:26.525Z,8.52
2023-01-11T07:15:57.426Z,8.83
2023-01-11T07:18:23.901Z,8.49
2023-01-11T07:20:51.633Z,8.76
2023-01-11T07:23:18.340Z,8.77
2023-01-11T07:25:44.776Z,8.39
2023-01-11T07:28:11.353Z,8.69
2023-01-11T07:30:56.111Z,8.54
2023-01-11T07:33:24.235Z,8.67
2023-01-11T07:35:50.725Z,8.62
2023-01-11T07:38:17.218Z,8.60
2023-01-11T07:40:43.674Z,8.15
2023-01-11T07:43:12.947Z,8.34
2023-01-11T07:45:45.735Z,8.54
2023-01-11T07:48:13.254Z,8.14
2023-01-11T07:50:42.827Z,8.41
2023-01-11T07:53:10.870Z,8.43
2023-01-11T07:55:37.662Z,8.21
2023-01-11T07:58:04.152Z,8.50
2023-01-11T08:00:30.696Z,8.02
2023-01-11T08:02:57.378Z,8.34
2023-01-11T08:05:24.949Z,8.40
2023-01-11T08:07:51.447Z,8.17
2023-01-11T08:10:18.229Z,8.36
2023-01-11T08:12:51.493Z,7.98
2023-01-11T08:15:18.148Z,8.37
2023-01-11T08:17:44.679Z,8.28
2023-01-11T08:20:11.292Z,7.88
2023-01-11T08:22:37.941Z,8.19
2023-01-11T08:25:04.645Z,8.24
2023-01-11T08:27:31.180Z,8.05
2023-01-11T08:29:57.844Z,8.26
2023-01-11T08:32:28.003Z,8.35
2023-01-11T08:34:54.525Z,8.27
2023-01-11T08:37:20.955Z,8.22
2023-01-11T08:39:47.486Z,8.23
2023-01-11T08:42:14.194Z,8.23
2023-01-11T08:44:40.662Z,8.20
2023-01-11T08:47:07.131Z,8.18
2023-01-11T08:49:33.620Z,8.20
2023-01-11T08:52:00.124Z,7.74
2023-01-11T08:54:26.663Z,8.13
2023-01-11T08:56:53.115Z,8.25
2023-01-11T08:59:19.566Z,8.29
2023-01-11T09:01:46.091Z,8.31
2023-01-11T09:04:24.381Z,8.19
2023-01-11T09:06:52.924Z,8.26
2023-01-11T09:09:19.513Z,8.29
2023-01-11T09:11:45.970Z,8.40
2023-01-11T09:14:12.642Z,8.42
2023-01-11T09:16:39.114Z,8.43
2023-01-11T09:19:05.599Z,8.44
2023-01-11T09:21:32.104Z,8.03
2023-01-11T09:23:58.643Z,8.40
2023-01-11T09:26:25.163Z,8.39
2023-01-11T09:28:51.740Z,8.44
2023-01-11T09:31:18.299Z,8.13
2023-01-11T09:33:44.771Z,8.07
2023-01-11T09:36:11.348Z,8.55
2023-01-11T09:38:37.846Z,8.47
2023-01-11T09:41:21.010Z,8.42
2023-01-11T09:44:05.570Z,8.47
2023-01-11T09:46:33.372Z,8.44
2023-01-11T09:49:00.076Z,8.26
2023-01-11T09:51:35.373Z,8.53
2023-01-11T09:54:02.873Z,8.62
2023-01-11T09:56:37.322Z,8.59
2023-01-11T09:59:28.352Z,8.67
2023-01-11T10:02:17.828Z,8.80
2023-01-11T10:04:55.182Z,8.83
2023-01-11T10:07:43.523Z,9.32
2023-01-11T10:18:39.108Z,11.01
2023-01-11T10:19:53.929Z,10.89
2023-01-11T10:22:28.866Z,10.52
2023-01-11T10:24:59.042Z,11.26
2023-01-11T10:27:33.287Z,10.93
2023-01-11T10:30:06.349Z,10.66
2023-01-11T10:32:41.295Z,10.83
2023-01-11T10:35:18.467Z,10.24
2023-01-11T10:37:48.352Z,9.88
2023-01-11T10:40:14.736Z,9.98
2023-01-11T10:42:57.982Z,10.45
2023-01-11T10:45:35.796Z,9.68
2023-01-11T10:48:20.549Z,10.24
2023-01-11T10:51:13.100Z,10.28
2023-01-11T10:53:47.677Z,10.05
2023-01-11T10:56:36.009Z,10.59
2023-01-11T10:59:40.140Z,10.35
2023-01-11T11:02:37.253Z,9.91
2023-01-11T11:05:24.127Z,10.31
2023-01-11T11:08:04.656Z,9.97
2023-01-11T11:10:37.291Z,10.02
2023-01-11T11:13:17.558Z,10.12
2023-01-11T11:16:08.144Z,9.79
2023-01-11T11:18:34.863Z,10.31
2023-01-11T11:21:06.819Z,10.23
2023-01-11T11:23:35.071Z,10.58
2023-01-11T11:26:04.217Z,9.96
2023-01-11T11:28:32.846Z,10.00
2023-01-11T11:31:03.926Z,9.91
2023-01-11T11:33:39.168Z,9.48
2023-01-11T11:36:07.362Z,9.91
2023-01-11T11:38:41.330Z,9.89
2023-01-11T11:41:13.888Z,10.04
2023-01-11T11:43:46.134Z,9.74
2023-01-11T11:46:19.434Z,10.01
2023-01-11T11:49:18.357Z,10.44
2023-01-11T11:51:47.059Z,10.00
2023-01-11T11:54:32.639Z,10.12
2023-01-11T11:57:14.503Z,9.81
2023-01-11T11:59:46.053Z,10.21
2023-01-11T12:02:28.041Z,10.26
2023-01-11T12:04:57.215Z,10.65
2023-01-11T12:07:49.715Z,10.60
2023-01-11T12:10:23.511Z,10.26
2023-01-11T12:12:53.066Z,10.70
2023-01-11T12:15:25.523Z,10.34
2023-01-11T12:17:52.044Z,10.25
2023-01-11T12:20:39.494Z,10.68
2023-01-11T12:23:26.214Z,9.90
2023-01-11T12:26:11.624Z,10.41
2023-01-11T12:28:46.867Z,10.72
2023-01-11T12:31:28.683Z,11.04
2023-01-11T12:34:17.323Z,10.75
2023-01-11T12:36:58.903Z,10.85
2023-01-11T12:39:30.398Z,11.03
2023-01-11T12:42:07.364Z,11.10
2023-01-11T12:44:54.030Z,11.05
2023-01-11T12:47:39.847Z,11.02
2023-01-11T12:50:19.369Z,10.69
2023-01-11T12:53:09.102Z,10.58
2023-01-11T12:55:45.820Z,10.82
2023-01-11T12:58:20.159Z,11.45
2023-01-11T13:01:09.336Z,11.15
2023-01-11T13:03:57.271Z,11.27
2023-01-11T13:06:29.708Z,10.99
2023-01-11T13:09:29.494Z,10.68
2023-01-11T13:12:04.906Z,10.38
2023-01-11T13:14:46.529Z,10.27
2023-01-11T13:17:31.832Z,10.14
2023-01-11T13:20:37.127Z,10.21
2023-01-11T13:23:26.144Z,10.08
2023-01-11T13:25:55.272Z,10.08
2023-01-11T13:28:38.899Z,9.77
2023-01-11T13:31:10.422Z,9.71
2023-01-11T13:33:40.763Z,10.30
2023-01-11T13:36:22.635Z,9.67
2023-01-11T13:38:58.962Z,10.29
2023-01-11T13:41:48.818Z,10.31
2023-01-11T13:44:22.519Z,10.14
2023-01-11T13:46:53.866Z,10.58
2023-01-11T13:49:44.248Z,10.63
2023-01-11T13:52:16.206Z,10.80
2023-01-11T13:54:45.616Z,10.41
2023-01-11T13:57:23.320Z,10.66
2023-01-11T13:59:55.053Z,9.91
2023-01-11T14:02:32.464Z,10.41
2023-01-11T14:05:06.959Z,10.09
2023-01-11T14:07:51.493Z,10.48
2023-01-11T14:10:47.093Z,10.38
2023-01-11T14:13:31.808Z,10.64
2023-01-11T14:16:05.673Z,10.54
2023-01-11T14:19:00.547Z,10.41
2023-01-11T14:22:05.161Z,10.72
2023-01-11T14:24:36.811Z,10.56
2023-01-11T14:27:40.255Z,9.83
2023-01-11T14:30:28.932Z,10.40
2023-01-11T14:33:23.813Z,10.48
2023-01-11T14:36:02.306Z,10.45
2023-01-11T14:38:41.012Z,10.36
2023-01-11T14:41:29.191Z,10.02
2023-01-11T14:44:11.340Z,10.35
2023-01-11T14:47:17.661Z,10.19
2023-01-11T14:49:52.240Z,9.95
2023-01-11T14:52:34.587Z,9.72
2023-01-11T14:55:15.983Z,9.93
2023-01-11T14:57:44.509Z,9.92
2023-01-11T15:00:16.978Z,10.00
2023-01-11T15:02:43.533Z,9.50
2023-01-11T15:05:11.847Z,9.53
2023-01-11T15:07:41.400Z,9.43
2023-01-11T15:10:29.262Z,9.70
2023-01-11T15:12:56.974Z,9.31
2023-01-11T15:15:27.755Z,9.69
2023-01-11T15:17:56.799Z,9.13
2023-01-11T15:20:24.518Z,9.36
2023-01-11T15:23:00.433Z,9.31
2023-01-11T15:25:34.810Z,9.25
2023-01-11T15:28:04.975Z,9.28
2023-01-11T15:30:31.365Z,9.20
2023-01-11T15:33:16.727Z,9.11
2023-01-11T15:35:55.500Z,9.05
2023-01-11T15:38:24.715Z,9.08
2023-01-11T15:40:53.424Z,9.00
2023-01-11T15:43:45.687Z,9.00
2023-01-11T15:46:36.225Z,8.54
2023-01-11T15:49:21.103Z,8.94
2023-01-11T15:52:14.981Z,8.90
2023-01-11T15:54:56.652Z,8.93
2023-01-11T15:57:26.310Z,8.91
2023-01-11T15:59:55.723Z,8.94
2023-01-11T16:02:44.172Z,8.84
2023-01-11T16:05:21.733Z,8.80
2023-01-11T16:08:05.895Z,8.50
2023-01-11T16:10:45.208Z,8.82
2023-01-11T16:13:14.503Z,8.77
2023-01-11T16:16:02.451Z,8.85
2023-01-11T16:18:36.997Z,8.41
2023-01-11T16:21:23.757Z,8.88
2023-01-11T16:23:50.348Z,8.42
2023-01-11T16:26:20.029Z,8.92
2023-01-11T16:28:52.170Z,8.88
2023-01-11T16:31:19.314Z,8.76
2023-01-11T16:33:47.565Z,8.35
2023-01-11T16:36:20.742Z,8.79
2023-01-11T16:39:04.286Z,8.83
2023-01-11T16:41:45.080Z,8.81
2023-01-11T16:44:44.449Z,8.93
2023-01-11T16:47:12.178Z,8.91
2023-01-11T16:49:40.477Z,8.80
2023-01-11T16:52:28.811Z,8.87
2023-01-11T16:54:58.081Z,8.39
2023-01-11T16:57:32.979Z,8.90
2023-01-11T17:00:01.998Z,8.68
2023-01-11T17:02:30.613Z,8.68
2023-01-11T17:04:57.136Z,8.66
2023-01-11T17:07:30.618Z,8.22
2023-01-11T17:10:19.028Z,8.67
2023-01-11T17:12:48.427Z,8.49
2023-01-11T17:15:29.195Z,8.13
2023-01-11T17:17:55.823Z,8.54
2023-01-11T17:20:27.712Z,8.58
2023-01-11T17:22:54.560Z,8.51
2023-01-11T17:25:29.598Z,8.20
2023-01-11T17:28:06.844Z,8.08
2023-01-11T17:30:34.310Z,8.56
2023-01-11T17:33:00.957Z,8.52
2023-01-11T17:35:33.172Z,8.19
2023-01-11T17:38:04.848Z,8.68
2023-01-11T17:40:33.617Z,8.39
2023-01-11T17:43:14.969Z,8.53
2023-01-11T17:45:42.382Z,8.52
2023-01-11T17:48:14.426Z,8.68
2023-01-11T17:50:48.136Z,8.78
2023-01-11T17:53:21.132Z,8.67
2023-01-11T17:55:52.297Z,8.70
2023-01-11T17:58:23.692Z,8.58
2023-01-11T18:01:05.537Z,8.68
2023-01-11T18:03:55.024Z,8.74
2023-01-11T18:06:27.562Z,8.76
2023-01-11T18:08:56.057Z,8.79
2023-01-11T18:11:41.853Z,8.73
2023-01-11T18:14:19.305Z,8.74
2023-01-11T18:16:55.568Z,8.80
2023-01-11T18:19:30.936Z,8.84
2023-01-11T18:21:57.415Z,8.71
2023-01-11T18:24:33.585Z,8.80
2023-01-11T18:27:14.205Z,8.67
2023-01-11T18:29:40.645Z,8.49
2023-01-11T18:32:11.665Z,8.46
2023-01-11T18:34:38.381Z,8.52
2023-01-11T18:37:05.673Z,8.45
2023-01-11T18:39:35.542Z,8.40
2023-01-11T18:42:04.400Z,8.06
2023-01-11T18:44:30.870Z,8.65
2023-01-11T18:46:57.382Z,8.73
2023-01-11T18:49:23.804Z,8.62
2023-01-11T18:51:50.269Z,8.75
2023-01-11T18:54:18.095Z,8.69
2023-01-11T18:56:44.571Z,8.72
2023-01-11T18:59:11.018Z,8.79
2023-01-11T19:01:52.796Z,8.51
2023-01-11T19:04:22.746Z,8.40
2023-01-11T19:06:49.202Z,8.71
2023-01-11T19:09:15.645Z,8.43
2023-01-11T19:11:42.128Z,8.76
2023-01-11T19:14:10.097Z,8.90
2023-01-11T19:16:36.585Z,8.82
2023-01-11T19:19:03.034Z,8.69
2023-01-11T19:21:29.662Z,8.75
2023-01-11T19:23:57.953Z,8.51
2023-01-11T19:26:24.511Z,7.97
2023-01-11T19:28:51.051Z,8.51
2023-01-11T19:31:17.611Z,8.00
2023-01-11T19:33:44.107Z,8.38
2023-01-11T19:36:10.799Z,8.28
2023-01-11T19:38:37.357Z,7.74
2023-01-11T19:41:06.892Z,8.10
2023-01-11T19:43:33.980Z,8.01
2023-01-11T19:46:00.591Z,7.30
2023-01-11T19:48:27.082Z,7.86
2023-01-11T19:51:02.054Z,7.93
2023-01-11T19:53:32.538Z,7.88
2023-01-11T19:56:07.267Z,7.88
2023-01-11T19:58:36.815Z,7.93
2023-01-11T20:01:11.216Z,7.93
2023-01-11T20:03:37.821Z,7.43
2023-01-11T20:06:06.063Z,7.37
2023-01-11T20:08:32.552Z,7.47
2023-01-11T20:11:05.120Z,7.72
2023-01-11T20:13:31.581Z,7.89
2023-01-11T20:15:58.028Z,8.00
2023-01-11T20:18:24.560Z,7.99
2023-01-11T20:20:57.548Z,7.95
2023-01-11T20:23:24.065Z,8.06
2023-01-11T20:25:50.700Z,7.62
2023-01-11T20:28:17.152Z,7.52
2023-01-11T20:30:43.592Z,7.42
2023-01-11T20:33:10.169Z,7.83
2023-01-11T20:35:37.116Z,7.78
2023-01-11T20:38:03.544Z,7.84
2023-01-11T20:40:29.987Z,7.23
2023-01-11T20:42:56.470Z,7.70
2023-01-11T20:45:22.919Z,7.44
2023-01-11T20:47:49.343Z,7.52
2023-01-11T20:50:15.883Z,7.73
2023-01-11T20:52:42.276Z,7.75
2023-01-11T20:55:09.306Z,7.67
2023-01-11T20:57:35.740Z,7.73
2023-01-11T21:00:02.165Z,7.70
2023-01-11T21:02:28.625Z,7.80
2023-01-11T21:04:55.064Z,7.70
2023-01-11T21:07:21.554Z,7.24
2023-01-11T21:09:47.969Z,7.68
2023-01-11T21:12:14.399Z,7.66
2023-01-11T21:14:40.836Z,7.71
2023-01-11T21:17:07.248Z,7.78
2023-01-11T21:19:33.710Z,7.91
2023-01-11T21:22:00.197Z,7.85
2023-01-11T21:24:26.818Z,8.00
2023-01-11T21:26:53.245Z,7.87
2023-01-11T21:29:19.702Z,7.76
2023-01-11T21:31:46.612Z,7.70
2023-01-11T21:34:14.037Z,7.77
2023-01-11T21:36:42.534Z,7.70
2023-01-11T21:39:13.402Z,7.79
2023-01-11T21:41:39.939Z,8.02
2023-01-11T21:44:07.743Z,8.02
2023-01-11T21:46:34.822Z,7.96
2023-01-11T21:49:01.364Z,7.92
2023-01-11T21:51:27.796Z,7.95
2023-01-11T21:53:54.255Z,7.51
2023-01-11T21:56:20.819Z,7.99
2023-01-11T21:58:47.283Z,7.85
2023-01-11T22:01:13.844Z,7.89
2023-01-11T22:03:40.521Z,7.87
2023-01-11T22:06:07.103Z,7.80
2023-01-11T22:08:35.093Z,7.82
2023-01-11T22:11:04.399Z,7.50
2023-01-11T22:13:32.293Z,7.79
2023-01-11T22:16:13.058Z,7.80
2023-01-11T22:18:39.798Z,7.42
2023-01-11T22:21:12.339Z,7.77
2023-01-11T22:23:39.364Z,7.76
2023-01-11T22:26:07.886Z,7.81
2023-01-11T22:28:34.478Z,7.86
2023-01-11T22:31:05.968Z,7.75
2023-01-11T22:33:32.418Z,7.33
2023-01-11T22:35:58.928Z,7.92
2023-01-11T22:38:25.376Z,7.61
2023-01-11T22:40:51.817Z,7.85
2023-01-11T22:43:18.335Z,7.36
2023-01-11T22:45:56.243Z,7.44
2023-01-11T22:48:22.737Z,7.81
2023-01-11T22:50:49.376Z,7.82
2023-01-11T22:53:16.018Z,7.44
2023-01-11T22:55:42.501Z,8.08
2023-01-11T22:58:08.955Z,8.00
2023-01-11T23:00:35.420Z,7.96
2023-01-11T23:03:01.882Z,7.99
2023-01-11T23:05:28.634Z,7.83
2023-01-11T23:07:55.098Z,7.84
2023-01-11T23:10:21.899Z,7.98
2023-01-11T23:12:48.389Z,7.80
2023-01-11T23:15:14.898Z,8.16
2023-01-11T23:17:41.355Z,8.19
2023-01-11T23:20:08.555Z,7.90
2023-01-11T23:22:34.994Z,8.25
2023-01-11T23:25:01.397Z,8.07
2023-01-11T23:27:27.834Z,8.20
2023-01-11T23:29:54.302Z,7.95
2023-01-11T23:32:20.835Z,8.19
2023-01-11T23:34:47.323Z,8.10
2023-01-11T23:37:13.775Z,8.17
2023-01-11T23:39:40.215Z,8.16
2023-01-11T23:42:06.645Z,8.15
2023-01-11T23:44:33.131Z,8.12
2023-01-11T23:46:59.604Z,7.76
2023-01-11T23:49:26.758Z,8.11
2023-01-11T23:51:54.002Z,7.75
2023-01-11T23:54:20.636Z,7.74
2023-01-11T23:56:47.267Z,8.13
2023-01-11T23:59:14.286Z,8.14
